sensor_id;sensor_type;location;lat;lon;timestamp;P1;durP1;ratioP1;P2;durP2;ratioP2
56321;SDS011;42227;6.376;-10.782;2023-02-15T00:02:22;141.82;;;68.00;;
56321;SDS011;42227;6.376;-10.782;2023-02-15T00:04:50;137.88;;;82.40;;
56321;SDS011;42227;6.376;-10.782;2023-02-15T00:07:19;145.25;;;78.57;;
56321;SDS011;42227;6.376;-10.782;2023-02-15T00:09:48;141.45;;;74.70;;
56321;SDS011;42227;6.376;-10.782;2023-02-15T00:12:16;106.82;;;49.92;;
56321;SDS011;42227;6.376;-10.782;2023-02-15T00:14:44;96.90;;;46.03;;
56321;SDS011;42227;6.376;-10.782;2023-02-15T00:17:13;89.20;;;41.38;;
56321;SDS011;42227;6.376;-10.782;2023-02-15T00:19:41;72.90;;;35.30;;
56321;SDS011;42227;6.376;-10.782;2023-02-15T00:22:09;87.10;;;37.67;;
56321;SDS011;42227;6.376;-10.782;2023-02-15T00:24:38;86.07;;;38.53;;
56321;SDS011;42227;6.376;-10.782;2023-02-15T00:27:06;80.80;;;32.80;;
56321;SDS011;42227;6.376;-10.782;2023-02-15T00:29:48;78.90;;;32.95;;
56321;SDS011;42227;6.376;-10.782;2023-02-15T00:34:57;84.78;;;38.20;;
56321;SDS011;42227;6.376;-10.782;2023-02-15T00:37:25;75.97;;;41.72;;
56321;SDS011;42227;6.376;-10.782;2023-02-15T00:39:53;94.30;;;53.42;;
56321;SDS011;42227;6.376;-10.782;2023-02-15T00:42:22;96.90;;;54.92;;
56321;SDS011;42227;6.376;-10.782;2023-02-15T00:44:59;123.30;;;66.07;;
56321;SDS011;42227;6.376;-10.782;2023-02-15T00:47:28;121.03;;;60.75;;
56321;SDS011;42227;6.376;-10.782;2023-02-15T00:49:56;113.72;;;57.55;;
56321;SDS011;42227;6.376;-10.782;2023-02-15T00:52:25;103.15;;;49.55;;
56321;SDS011;42227;6.376;-10.782;2023-02-15T00:54:55;94.88;;;47.80;;
56321;SDS011;42227;6.376;-10.782;2023-02-15T00:57:29;69.85;;;36.75;;
56321;SDS011;42227;6.376;-10.782;2023-02-15T00:59:57;52.53;;;26.13;;
56321;SDS011;42227;6.376;-10.782;2023-02-15T01:02:25;49.60;;;25.23;;
56321;SDS011;42227;6.376;-10.782;2023-02-15T01:04:54;40.08;;;22.52;;
56321;SDS011;42227;6.376;-10.782;2023-02-15T01:07:22;42.30;;;21.55;;
56321;SDS011;42227;6.376;-10.782;2023-02-15T01:09:54;35.45;;;21.95;;
56321;SDS011;42227;6.376;-10.782;2023-02-15T01:12:22;43.53;;;23.73;;
56321;SDS011;42227;6.376;-10.782;2023-02-15T01:14:50;48.95;;;23.13;;
56321;SDS011;42227;6.376;-10.782;2023-02-15T01:17:24;44.53;;;24.20;;
56321;SDS011;42227;6.376;-10.782;2023-02-15T01:19:53;48.97;;;21.70;;
56321;SDS011;42227;6.376;-10.782;2023-02-15T01:22:21;42.38;;;19.15;;
56321;SDS011;42227;6.376;-10.782;2023-02-15T01:24:49;47.15;;;19.17;;
56321;SDS011;42227;6.376;-10.782;2023-02-15T01:27:21;39.53;;;21.75;;
56321;SDS011;42227;6.376;-10.782;2023-02-15T01:29:49;48.80;;;22.48;;
56321;SDS011;42227;6.376;-10.782;2023-02-15T01:32:18;33.40;;;17.02;;
56321;SDS011;42227;6.376;-10.782;2023-02-15T01:34:49;42.17;;;17.98;;
56321;SDS011;42227;6.376;-10.782;2023-02-15T01:37:18;39.72;;;18.13;;
56321;SDS011;42227;6.376;-10.782;2023-02-15T01:39:47;38.65;;;20.85;;
56321;SDS011;42227;6.376;-10.782;2023-02-15T01:42:23;35.53;;;20.27;;
56321;SDS011;42227;6.376;-10.782;2023-02-15T01:44:56;41.30;;;22.52;;
56321;SDS011;42227;6.376;-10.782;2023-02-15T01:47:30;42.83;;;18.02;;
56321;SDS011;42227;6.376;-10.782;2023-02-15T01:52:44;35.08;;;19.05;;
56321;SDS011;42227;6.376;-10.782;2023-02-15T01:55:41;40.03;;;17.38;;
56321;SDS011;42227;6.376;-10.782;2023-02-15T01:58:17;32.05;;;18.35;;
56321;SDS011;42227;6.376;-10.782;2023-02-15T02:00:47;47.40;;;20.80;;
56321;SDS011;42227;6.376;-10.782;2023-02-15T02:03:15;38.40;;;17.98;;
56321;SDS011;42227;6.376;-10.782;2023-02-15T02:05:43;45.78;;;21.45;;
56321;SDS011;42227;6.376;-10.782;2023-02-15T02:08:12;41.45;;;21.30;;
56321;SDS011;42227;6.376;-10.782;2023-02-15T02:10:40;42.72;;;21.83;;
56321;SDS011;42227;6.376;-10.782;2023-02-15T02:13:09;34.85;;;20.80;;
56321;SDS011;42227;6.376;-10.782;2023-02-15T02:15:43;44.25;;;21.33;;
56321;SDS011;42227;6.376;-10.782;2023-02-15T02:19:13;39.00;;;19.27;;
56321;SDS011;42227;6.376;-10.782;2023-02-15T02:33:17;33.47;;;17.92;;
56321;SDS011;42227;6.376;-10.782;2023-02-15T02:36:15;30.23;;;18.48;;
56321;SDS011;42227;6.376;-10.782;2023-02-15T02:47:29;45.10;;;23.83;;
56321;SDS011;42227;6.376;-10.782;2023-02-15T02:50:31;38.65;;;24.35;;
56321;SDS011;42227;6.376;-10.782;2023-02-15T02:53:02;50.17;;;26.10;;
56321;SDS011;42227;6.376;-10.782;2023-02-15T02:55:32;65.78;;;30.20;;
56321;SDS011;42227;6.376;-10.782;2023-02-15T02:58:03;59.20;;;29.88;;
56321;SDS011;42227;6.376;-10.782;2023-02-15T03:01:08;46.83;;;29.88;;
56321;SDS011;42227;6.376;-10.782;2023-02-15T03:03:44;60.75;;;31.10;;
56321;SDS011;42227;6.376;-10.782;2023-02-15T03:06:24;66.10;;;33.25;;
56321;SDS011;42227;6.376;-10.782;2023-02-15T03:09:17;59.25;;;32.92;;
56321;SDS011;42227;6.376;-10.782;2023-02-15T03:11:53;51.03;;;27.70;;
56321;SDS011;42227;6.376;-10.782;2023-02-15T03:14:22;72.45;;;38.17;;
56321;SDS011;42227;6.376;-10.782;2023-02-15T03:16:51;69.15;;;39.85;;
56321;SDS011;42227;6.376;-10.782;2023-02-15T03:19:27;55.35;;;30.98;;
56321;SDS011;42227;6.376;-10.782;2023-02-15T03:22:06;62.25;;;34.53;;
56321;SDS011;42227;6.376;-10.782;2023-02-15T03:24:56;63.53;;;32.67;;
56321;SDS011;42227;6.376;-10.782;2023-02-15T03:27:33;33.20;;;18.23;;
56321;SDS011;42227;6.376;-10.782;2023-02-15T03:30:12;39.00;;;18.83;;
56321;SDS011;42227;6.376;-10.782;2023-02-15T03:32:43;31.67;;;19.00;;
56321;SDS011;42227;6.376;-10.782;2023-02-15T03:35:12;37.83;;;20.17;;
56321;SDS011;42227;6.376;-10.782;2023-02-15T03:38:06;55.63;;;30.75;;
56321;SDS011;42227;6.376;-10.782;2023-02-15T03:40:38;44.15;;;25.30;;
56321;SDS011;42227;6.376;-10.782;2023-02-15T03:45:52;47.25;;;23.30;;
56321;SDS011;42227;6.376;-10.782;2023-02-15T03:48:25;72.13;;;38.00;;
56321;SDS011;42227;6.376;-10.782;2023-02-15T03:51:01;86.45;;;49.55;;
56321;SDS011;42227;6.376;-10.782;2023-02-15T03:53:35;119.93;;;67.07;;
56321;SDS011;42227;6.376;-10.782;2023-02-15T03:56:05;116.72;;;74.55;;
56321;SDS011;42227;6.376;-10.782;2023-02-15T03:58:33;120.63;;;66.30;;
56321;SDS011;42227;6.376;-10.782;2023-02-15T04:01:03;89.80;;;48.80;;
56321;SDS011;42227;6.376;-10.782;2023-02-15T04:03:49;56.58;;;29.80;;
56321;SDS011;42227;6.376;-10.782;2023-02-15T04:06:23;34.67;;;20.95;;
56321;SDS011;42227;6.376;-10.782;2023-02-15T04:08:51;59.60;;;31.50;;
56321;SDS011;42227;6.376;-10.782;2023-02-15T04:11:20;63.60;;;33.05;;
56321;SDS011;42227;6.376;-10.782;2023-02-15T04:13:48;71.70;;;38.60;;
56321;SDS011;42227;6.376;-10.782;2023-02-15T04:16:16;85.65;;;36.13;;
56321;SDS011;42227;6.376;-10.782;2023-02-15T04:18:45;71.85;;;37.50;;
56321;SDS011;42227;6.376;-10.782;2023-02-15T04:21:13;72.57;;;34.33;;
56321;SDS011;42227;6.376;-10.782;2023-02-15T04:23:41;70.05;;;36.80;;
56321;SDS011;42227;6.376;-10.782;2023-02-15T04:26:09;62.80;;;35.30;;
56321;SDS011;42227;6.376;-10.782;2023-02-15T04:28:38;58.58;;;32.92;;
56321;SDS011;42227;6.376;-10.782;2023-02-15T04:31:06;69.50;;;39.90;;
56321;SDS011;42227;6.376;-10.782;2023-02-15T04:33:34;66.57;;;34.42;;
56321;SDS011;42227;6.376;-10.782;2023-02-15T04:36:03;57.67;;;30.58;;
56321;SDS011;42227;6.376;-10.782;2023-02-15T04:38:32;53.00;;;28.23;;
56321;SDS011;42227;6.376;-10.782;2023-02-15T04:41:00;50.83;;;27.30;;
56321;SDS011;42227;6.376;-10.782;2023-02-15T04:43:28;65.20;;;32.67;;
56321;SDS011;42227;6.376;-10.782;2023-02-15T04:45:56;65.60;;;31.48;;
56321;SDS011;42227;6.376;-10.782;2023-02-15T04:48:25;56.30;;;28.23;;
56321;SDS011;42227;6.376;-10.782;2023-02-15T04:50:53;47.90;;;27.05;;
56321;SDS011;42227;6.376;-10.782;2023-02-15T04:53:22;45.88;;;24.55;;
56321;SDS011;42227;6.376;-10.782;2023-02-15T04:55:50;43.95;;;23.17;;
56321;SDS011;42227;6.376;-10.782;2023-02-15T04:58:18;42.97;;;22.27;;
56321;SDS011;42227;6.376;-10.782;2023-02-15T05:00:46;34.08;;;21.02;;
56321;SDS011;42227;6.376;-10.782;2023-02-15T05:03:14;50.10;;;23.85;;
56321;SDS011;42227;6.376;-10.782;2023-02-15T05:05:45;38.60;;;23.05;;
56321;SDS011;42227;6.376;-10.782;2023-02-15T05:08:14;48.80;;;24.92;;
56321;SDS011;42227;6.376;-10.782;2023-02-15T05:10:42;43.47;;;24.63;;
56321;SDS011;42227;6.376;-10.782;2023-02-15T05:13:10;64.35;;;30.35;;
56321;SDS011;42227;6.376;-10.782;2023-02-15T05:15:39;57.92;;;29.70;;
56321;SDS011;42227;6.376;-10.782;2023-02-15T05:18:10;52.90;;;26.97;;
56321;SDS011;42227;6.376;-10.782;2023-02-15T05:20:38;42.15;;;21.52;;
56321;SDS011;42227;6.376;-10.782;2023-02-15T05:23:06;76.50;;;25.35;;
56321;SDS011;42227;6.376;-10.782;2023-02-15T05:25:35;41.70;;;21.77;;
56321;SDS011;42227;6.376;-10.782;2023-02-15T05:28:03;62.33;;;24.58;;
56321;SDS011;42227;6.376;-10.782;2023-02-15T05:30:32;33.90;;;22.75;;
56321;SDS011;42227;6.376;-10.782;2023-02-15T05:33:00;34.13;;;19.63;;
56321;SDS011;42227;6.376;-10.782;2023-02-15T05:35:28;46.30;;;23.33;;
56321;SDS011;42227;6.376;-10.782;2023-02-15T05:37:57;47.05;;;23.73;;
56321;SDS011;42227;6.376;-10.782;2023-02-15T05:40:25;44.63;;;25.48;;
56321;SDS011;42227;6.376;-10.782;2023-02-15T05:42:54;46.20;;;25.48;;
56321;SDS011;42227;6.376;-10.782;2023-02-15T05:45:23;62.15;;;27.38;;
56321;SDS011;42227;6.376;-10.782;2023-02-15T05:47:51;42.35;;;24.00;;
56321;SDS011;42227;6.376;-10.782;2023-02-15T05:50:20;67.00;;;28.73;;
56321;SDS011;42227;6.376;-10.782;2023-02-15T05:52:48;52.35;;;28.77;;
56321;SDS011;42227;6.376;-10.782;2023-02-15T05:55:18;71.47;;;31.33;;
56321;SDS011;42227;6.376;-10.782;2023-02-15T05:57:46;60.72;;;28.38;;
56321;SDS011;42227;6.376;-10.782;2023-02-15T06:00:16;59.47;;;27.60;;
56321;SDS011;42227;6.376;-10.782;2023-02-15T06:02:44;46.17;;;24.90;;
56321;SDS011;42227;6.376;-10.782;2023-02-15T06:05:13;45.85;;;25.50;;
56321;SDS011;42227;6.376;-10.782;2023-02-15T06:07:44;42.75;;;24.58;;
56321;SDS011;42227;6.376;-10.782;2023-02-15T06:10:13;57.45;;;28.33;;
56321;SDS011;42227;6.376;-10.782;2023-02-15T06:12:41;56.70;;;26.13;;
56321;SDS011;42227;6.376;-10.782;2023-02-15T06:15:11;55.58;;;26.02;;
56321;SDS011;42227;6.376;-10.782;2023-02-15T06:17:42;70.97;;;27.40;;
56321;SDS011;42227;6.376;-10.782;2023-02-15T06:20:10;63.50;;;29.50;;
56321;SDS011;42227;6.376;-10.782;2023-02-15T06:22:39;64.15;;;26.00;;
56321;SDS011;42227;6.376;-10.782;2023-02-15T06:25:07;51.08;;;28.27;;
56321;SDS011;42227;6.376;-10.782;2023-02-15T06:27:35;52.30;;;27.40;;
56321;SDS011;42227;6.376;-10.782;2023-02-15T06:30:04;53.17;;;25.70;;
56321;SDS011;42227;6.376;-10.782;2023-02-15T06:32:33;43.70;;;26.40;;
56321;SDS011;42227;6.376;-10.782;2023-02-15T06:35:02;63.42;;;27.15;;
56321;SDS011;42227;6.376;-10.782;2023-02-15T06:37:31;59.80;;;29.60;;
56321;SDS011;42227;6.376;-10.782;2023-02-15T06:39:59;58.33;;;28.63;;
56321;SDS011;42227;6.376;-10.782;2023-02-15T06:42:30;65.90;;;27.23;;
56321;SDS011;42227;6.376;-10.782;2023-02-15T06:44:58;66.25;;;31.85;;
56321;SDS011;42227;6.376;-10.782;2023-02-15T06:47:26;69.22;;;29.35;;
56321;SDS011;42227;6.376;-10.782;2023-02-15T06:50:13;60.75;;;29.70;;
56321;SDS011;42227;6.376;-10.782;2023-02-15T07:01:37;89.22;;;38.65;;
56321;SDS011;42227;6.376;-10.782;2023-02-15T07:07:37;73.57;;;40.53;;
56321;SDS011;42227;6.376;-10.782;2023-02-15T07:10:09;75.85;;;37.30;;
56321;SDS011;42227;6.376;-10.782;2023-02-15T07:12:53;83.70;;;39.58;;
56321;SDS011;42227;6.376;-10.782;2023-02-15T07:15:24;83.93;;;37.85;;
56321;SDS011;42227;6.376;-10.782;2023-02-15T07:17:53;91.25;;;45.78;;
56321;SDS011;42227;6.376;-10.782;2023-02-15T07:20:23;92.80;;;39.10;;
56321;SDS011;42227;6.376;-10.782;2023-02-15T07:23:02;73.78;;;35.85;;
56321;SDS011;42227;6.376;-10.782;2023-02-15T07:25:41;76.32;;;34.90;;
56321;SDS011;42227;6.376;-10.782;2023-02-15T07:28:12;78.93;;;34.97;;
56321;SDS011;42227;6.376;-10.782;2023-02-15T07:30:43;69.35;;;34.55;;
56321;SDS011;42227;6.376;-10.782;2023-02-15T07:33:11;82.93;;;37.28;;
56321;SDS011;42227;6.376;-10.782;2023-02-15T07:35:46;91.15;;;36.80;;
56321;SDS011;42227;6.376;-10.782;2023-02-15T07:38:21;71.65;;;33.33;;
56321;SDS011;42227;6.376;-10.782;2023-02-15T07:41:01;80.03;;;34.65;;
56321;SDS011;42227;6.376;-10.782;2023-02-15T07:43:35;68.82;;;35.60;;
56321;SDS011;42227;6.376;-10.782;2023-02-15T07:46:08;89.35;;;34.58;;
56321;SDS011;42227;6.376;-10.782;2023-02-15T07:48:38;69.90;;;32.75;;
56321;SDS011;42227;6.376;-10.782;2023-02-15T07:51:13;69.47;;;36.20;;
56321;SDS011;42227;6.376;-10.782;2023-02-15T07:53:42;63.90;;;33.63;;
56321;SDS011;42227;6.376;-10.782;2023-02-15T07:56:11;76.10;;;34.22;;
56321;SDS011;42227;6.376;-10.782;2023-02-15T07:58:41;72.20;;;33.83;;
56321;SDS011;42227;6.376;-10.782;2023-02-15T08:01:10;75.18;;;33.33;;
56321;SDS011;42227;6.376;-10.782;2023-02-15T08:03:38;74.13;;;32.92;;
56321;SDS011;42227;6.376;-10.782;2023-02-15T08:06:07;99.53;;;34.40;;
56321;SDS011;42227;6.376;-10.782;2023-02-15T08:08:35;71.38;;;31.63;;
56321;SDS011;42227;6.376;-10.782;2023-02-15T08:11:14;65.93;;;30.38;;
56321;SDS011;42227;6.376;-10.782;2023-02-15T08:13:48;73.35;;;33.80;;
56321;SDS011;42227;6.376;-10.782;2023-02-15T08:16:17;65.50;;;29.15;;
56321;SDS011;42227;6.376;-10.782;2023-02-15T08:18:45;62.40;;;29.67;;
56321;SDS011;42227;6.376;-10.782;2023-02-15T08:21:14;67.03;;;30.25;;
56321;SDS011;42227;6.376;-10.782;2023-02-15T08:23:42;83.05;;;29.52;;
56321;SDS011;42227;6.376;-10.782;2023-02-15T08:26:12;73.50;;;27.33;;
56321;SDS011;42227;6.376;-10.782;2023-02-15T08:28:41;72.35;;;28.60;;
56321;SDS011;42227;6.376;-10.782;2023-02-15T08:31:10;65.60;;;26.25;;
56321;SDS011;42227;6.376;-10.782;2023-02-15T08:34:20;68.40;;;31.55;;
56321;SDS011;42227;6.376;-10.782;2023-02-15T08:36:48;68.43;;;27.55;;
56321;SDS011;42227;6.376;-10.782;2023-02-15T08:39:18;64.63;;;28.08;;
56321;SDS011;42227;6.376;-10.782;2023-02-15T08:41:49;68.85;;;26.90;;
56321;SDS011;42227;6.376;-10.782;2023-02-15T08:44:18;59.13;;;28.13;;
56321;SDS011;42227;6.376;-10.782;2023-02-15T08:46:47;78.22;;;31.55;;
56321;SDS011;42227;6.376;-10.782;2023-02-15T08:49:18;71.13;;;29.05;;
56321;SDS011;42227;6.376;-10.782;2023-02-15T08:51:48;62.57;;;30.43;;
56321;SDS011;42227;6.376;-10.782;2023-02-15T08:54:18;70.70;;;33.38;;
56321;SDS011;42227;6.376;-10.782;2023-02-15T08:56:48;76.80;;;34.45;;
56321;SDS011;42227;6.376;-10.782;2023-02-15T08:59:17;85.30;;;39.67;;
56321;SDS011;42227;6.376;-10.782;2023-02-15T09:01:47;70.93;;;39.28;;
56321;SDS011;42227;6.376;-10.782;2023-02-15T09:04:18;67.95;;;33.35;;
56321;SDS011;42227;6.376;-10.782;2023-02-15T09:06:48;70.57;;;28.05;;
56321;SDS011;42227;6.376;-10.782;2023-02-15T09:09:17;78.00;;;31.92;;
56321;SDS011;42227;6.376;-10.782;2023-02-15T09:11:47;59.08;;;33.72;;
56321;SDS011;42227;6.376;-10.782;2023-02-15T09:14:23;65.75;;;39.05;;
56321;SDS011;42227;6.376;-10.782;2023-02-15T09:16:52;64.40;;;34.88;;
56321;SDS011;42227;6.376;-10.782;2023-02-15T09:19:21;72.00;;;35.83;;
56321;SDS011;42227;6.376;-10.782;2023-02-15T09:21:51;93.32;;;35.78;;
56321;SDS011;42227;6.376;-10.782;2023-02-15T09:24:20;73.85;;;34.58;;
56321;SDS011;42227;6.376;-10.782;2023-02-15T09:26:49;76.75;;;34.97;;
56321;SDS011;42227;6.376;-10.782;2023-02-15T09:29:17;76.68;;;32.35;;
56321;SDS011;42227;6.376;-10.782;2023-02-15T09:31:48;75.03;;;33.05;;
56321;SDS011;42227;6.376;-10.782;2023-02-15T09:34:18;100.53;;;36.15;;
56321;SDS011;42227;6.376;-10.782;2023-02-15T09:36:48;86.63;;;32.65;;
56321;SDS011;42227;6.376;-10.782;2023-02-15T09:39:18;73.53;;;33.97;;
56321;SDS011;42227;6.376;-10.782;2023-02-15T09:56:02;53.38;;;24.55;;
56321;SDS011;42227;6.376;-10.782;2023-02-15T10:01:40;76.90;;;33.85;;
56321;SDS011;42227;6.376;-10.782;2023-02-15T10:18:52;66.93;;;27.40;;
56321;SDS011;42227;6.376;-10.782;2023-02-15T10:27:44;51.67;;;24.10;;
56321;SDS011;42227;6.376;-10.782;2023-02-15T10:30:15;62.22;;;21.50;;
56321;SDS011;42227;6.376;-10.782;2023-02-15T10:33:03;56.10;;;23.23;;
56321;SDS011;42227;6.376;-10.782;2023-02-15T10:35:43;137.48;;;32.55;;
56321;SDS011;42227;6.376;-10.782;2023-02-15T10:43:54;69.75;;;20.17;;
56321;SDS011;42227;6.376;-10.782;2023-02-15T10:46:43;51.63;;;20.45;;
56321;SDS011;42227;6.376;-10.782;2023-02-15T10:52:25;44.22;;;21.83;;
56321;SDS011;42227;6.376;-10.782;2023-02-15T10:55:43;34.10;;;16.75;;
56321;SDS011;42227;6.376;-10.782;2023-02-15T11:06:55;36.00;;;15.13;;
56321;SDS011;42227;6.376;-10.782;2023-02-15T11:09:29;37.55;;;16.85;;
56321;SDS011;42227;6.376;-10.782;2023-02-15T11:12:07;50.95;;;19.48;;
56321;SDS011;42227;6.376;-10.782;2023-02-15T11:14:50;45.40;;;19.63;;
56321;SDS011;42227;6.376;-10.782;2023-02-15T11:17:43;67.07;;;21.65;;
56321;SDS011;42227;6.376;-10.782;2023-02-15T11:20:30;44.65;;;22.13;;
56321;SDS011;42227;6.376;-10.782;2023-02-15T11:23:08;38.22;;;20.00;;
56321;SDS011;42227;6.376;-10.782;2023-02-15T11:25:43;53.10;;;21.17;;
56321;SDS011;42227;6.376;-10.782;2023-02-15T11:28:18;56.08;;;19.85;;
56321;SDS011;42227;6.376;-10.782;2023-02-15T11:37:19;45.03;;;20.30;;
56321;SDS011;42227;6.376;-10.782;2023-02-15T11:39:54;52.70;;;22.02;;
56321;SDS011;42227;6.376;-10.782;2023-02-15T11:42:23;35.13;;;16.25;;
56321;SDS011;42227;6.376;-10.782;2023-02-15T11:47:48;42.90;;;20.67;;
56321;SDS011;42227;6.376;-10.782;2023-02-15T11:50:22;41.70;;;20.65;;
56321;SDS011;42227;6.376;-10.782;2023-02-15T11:53:00;36.58;;;16.48;;
56321;SDS011;42227;6.376;-10.782;2023-02-15T11:55:31;34.40;;;17.08;;
56321;SDS011;42227;6.376;-10.782;2023-02-15T11:58:04;33.60;;;17.88;;
56321;SDS011;42227;6.376;-10.782;2023-02-15T12:01:24;26.98;;;14.80;;
56321;SDS011;42227;6.376;-10.782;2023-02-15T12:03:56;28.92;;;12.70;;
56321;SDS011;42227;6.376;-10.782;2023-02-15T12:06:31;35.97;;;14.55;;
56321;SDS011;42227;6.376;-10.782;2023-02-15T12:09:10;42.83;;;15.20;;
56321;SDS011;42227;6.376;-10.782;2023-02-15T12:11:41;27.48;;;13.35;;
56321;SDS011;42227;6.376;-10.782;2023-02-15T12:14:10;37.63;;;13.43;;
56321;SDS011;42227;6.376;-10.782;2023-02-15T12:22:10;46.25;;;17.88;;
56321;SDS011;42227;6.376;-10.782;2023-02-15T12:25:00;33.42;;;14.35;;
56321;SDS011;42227;6.376;-10.782;2023-02-15T12:27:52;25.75;;;12.48;;
56321;SDS011;42227;6.376;-10.782;2023-02-15T12:30:35;22.25;;;12.57;;
56321;SDS011;42227;6.376;-10.782;2023-02-15T12:33:15;23.73;;;12.20;;
56321;SDS011;42227;6.376;-10.782;2023-02-15T12:36:03;26.17;;;12.85;;
56321;SDS011;42227;6.376;-10.782;2023-02-15T12:38:39;49.25;;;15.63;;
56321;SDS011;42227;6.376;-10.782;2023-02-15T12:41:23;32.10;;;13.18;;
56321;SDS011;42227;6.376;-10.782;2023-02-15T12:44:04;33.92;;;15.82;;
56321;SDS011;42227;6.376;-10.782;2023-02-15T12:46:40;37.40;;;17.65;;
56321;SDS011;42227;6.376;-10.782;2023-02-15T12:49:19;31.95;;;17.90;;
56321;SDS011;42227;6.376;-10.782;2023-02-15T12:51:49;28.40;;;15.88;;
56321;SDS011;42227;6.376;-10.782;2023-02-15T12:56:53;37.67;;;18.13;;
56321;SDS011;42227;6.376;-10.782;2023-02-15T12:59:21;37.20;;;16.33;;
56321;SDS011;42227;6.376;-10.782;2023-02-15T13:01:52;31.70;;;13.30;;
56321;SDS011;42227;6.376;-10.782;2023-02-15T13:04:22;29.52;;;14.23;;
56321;SDS011;42227;6.376;-10.782;2023-02-15T13:06:55;30.70;;;13.65;;
56321;SDS011;42227;6.376;-10.782;2023-02-15T13:14:47;33.00;;;14.48;;
56321;SDS011;42227;6.376;-10.782;2023-02-15T13:17:28;35.95;;;18.17;;
56321;SDS011;42227;6.376;-10.782;2023-02-15T13:20:06;63.35;;;28.63;;
56321;SDS011;42227;6.376;-10.782;2023-02-15T13:22:45;56.13;;;32.00;;
56321;SDS011;42227;6.376;-10.782;2023-02-15T13:25:18;44.58;;;20.63;;
56321;SDS011;42227;6.376;-10.782;2023-02-15T13:27:52;58.53;;;29.95;;
56321;SDS011;42227;6.376;-10.782;2023-02-15T13:30:28;48.80;;;16.63;;
56321;SDS011;42227;6.376;-10.782;2023-02-15T13:33:14;25.67;;;12.25;;
56321;SDS011;42227;6.376;-10.782;2023-02-15T13:38:36;52.95;;;33.35;;
56321;SDS011;42227;6.376;-10.782;2023-02-15T13:41:18;77.55;;;44.58;;
56321;SDS011;42227;6.376;-10.782;2023-02-15T13:46:31;74.57;;;37.70;;
56321;SDS011;42227;6.376;-10.782;2023-02-15T13:49:29;61.63;;;26.70;;
56321;SDS011;42227;6.376;-10.782;2023-02-15T13:52:21;48.63;;;29.02;;
56321;SDS011;42227;6.376;-10.782;2023-02-15T14:05:53;58.05;;;28.02;;
56321;SDS011;42227;6.376;-10.782;2023-02-15T14:09:20;47.17;;;25.13;;
56321;SDS011;42227;6.376;-10.782;2023-02-15T14:23:18;59.85;;;30.60;;
56321;SDS011;42227;6.376;-10.782;2023-02-15T14:29:02;70.55;;;30.30;;
56321;SDS011;42227;6.376;-10.782;2023-02-15T14:31:40;53.50;;;32.67;;
56321;SDS011;42227;6.376;-10.782;2023-02-15T14:34:23;65.65;;;31.20;;
56321;SDS011;42227;6.376;-10.782;2023-02-15T14:36:59;57.90;;;31.33;;
56321;SDS011;42227;6.376;-10.782;2023-02-15T14:45:01;49.78;;;26.77;;
56321;SDS011;42227;6.376;-10.782;2023-02-15T14:47:46;45.53;;;28.48;;
56321;SDS011;42227;6.376;-10.782;2023-02-15T14:53:43;35.08;;;19.50;;
56321;SDS011;42227;6.376;-10.782;2023-02-15T15:04:00;37.90;;;20.83;;
56321;SDS011;42227;6.376;-10.782;2023-02-15T15:06:36;33.38;;;17.48;;
56321;SDS011;42227;6.376;-10.782;2023-02-15T15:14:49;36.92;;;18.40;;
56321;SDS011;42227;6.376;-10.782;2023-02-15T15:20:10;47.53;;;21.67;;
56321;SDS011;42227;6.376;-10.782;2023-02-15T15:34:07;40.63;;;17.92;;
56321;SDS011;42227;6.376;-10.782;2023-02-15T15:40:17;41.95;;;21.08;;
56321;SDS011;42227;6.376;-10.782;2023-02-15T15:43:19;47.38;;;22.50;;
56321;SDS011;42227;6.376;-10.782;2023-02-15T15:49:12;51.63;;;21.52;;
56321;SDS011;42227;6.376;-10.782;2023-02-15T15:51:44;56.78;;;21.45;;
56321;SDS011;42227;6.376;-10.782;2023-02-15T15:54:14;49.95;;;24.80;;
56321;SDS011;42227;6.376;-10.782;2023-02-15T15:56:51;55.75;;;22.52;;
56321;SDS011;42227;6.376;-10.782;2023-02-15T15:59:24;52.35;;;24.02;;
56321;SDS011;42227;6.376;-10.782;2023-02-15T16:01:55;28.05;;;16.27;;
56321;SDS011;42227;6.376;-10.782;2023-02-15T16:04:27;39.95;;;18.80;;
56321;SDS011;42227;6.376;-10.782;2023-02-15T16:12:31;42.65;;;18.77;;
56321;SDS011;42227;6.376;-10.782;2023-02-15T16:15:02;43.42;;;17.50;;
56321;SDS011;42227;6.376;-10.782;2023-02-15T16:17:43;33.75;;;15.68;;
56321;SDS011;42227;6.376;-10.782;2023-02-15T16:20:29;48.05;;;19.10;;
56321;SDS011;42227;6.376;-10.782;2023-02-15T16:25:47;54.58;;;19.45;;
56321;SDS011;42227;6.376;-10.782;2023-02-15T16:28:34;46.47;;;19.25;;
56321;SDS011;42227;6.376;-10.782;2023-02-15T16:31:12;42.65;;;18.63;;
56321;SDS011;42227;6.376;-10.782;2023-02-15T16:33:42;35.45;;;18.42;;
56321;SDS011;42227;6.376;-10.782;2023-02-15T16:36:19;37.83;;;17.92;;
56321;SDS011;42227;6.376;-10.782;2023-02-15T16:41:28;31.80;;;14.57;;
56321;SDS011;42227;6.376;-10.782;2023-02-15T16:43:59;40.80;;;20.92;;
56321;SDS011;42227;6.376;-10.782;2023-02-15T16:46:36;45.35;;;22.35;;
56321;SDS011;42227;6.376;-10.782;2023-02-15T16:49:15;56.35;;;22.50;;
56321;SDS011;42227;6.376;-10.782;2023-02-15T16:51:53;39.55;;;19.50;;
56321;SDS011;42227;6.376;-10.782;2023-02-15T16:54:27;33.83;;;18.15;;
56321;SDS011;42227;6.376;-10.782;2023-02-15T16:56:57;36.78;;;19.30;;
56321;SDS011;42227;6.376;-10.782;2023-02-15T16:59:47;56.58;;;19.48;;
56321;SDS011;42227;6.376;-10.782;2023-02-15T17:02:19;41.83;;;21.58;;
56321;SDS011;42227;6.376;-10.782;2023-02-15T17:05:16;40.10;;;18.85;;
56321;SDS011;42227;6.376;-10.782;2023-02-15T17:07:50;56.00;;;20.10;;
56321;SDS011;42227;6.376;-10.782;2023-02-15T17:10:39;44.95;;;21.80;;
56321;SDS011;42227;6.376;-10.782;2023-02-15T17:16:09;38.53;;;23.17;;
56321;SDS011;42227;6.376;-10.782;2023-02-15T17:18:33;51.58;;;19.27;;
56321;SDS011;42227;6.376;-10.782;2023-02-15T17:21:12;48.03;;;21.92;;
56321;SDS011;42227;6.376;-10.782;2023-02-15T17:23:51;45.47;;;24.42;;
56321;SDS011;42227;6.376;-10.782;2023-02-15T17:26:32;36.72;;;21.75;;
56321;SDS011;42227;6.376;-10.782;2023-02-15T17:29:18;53.72;;;24.15;;
56321;SDS011;42227;6.376;-10.782;2023-02-15T17:32:21;49.40;;;25.40;;
56321;SDS011;42227;6.376;-10.782;2023-02-15T17:37:48;55.92;;;20.90;;
56321;SDS011;42227;6.376;-10.782;2023-02-15T17:40:21;45.40;;;23.70;;
56321;SDS011;42227;6.376;-10.782;2023-02-15T17:42:53;43.60;;;23.40;;
56321;SDS011;42227;6.376;-10.782;2023-02-15T17:45:22;44.50;;;23.40;;
56321;SDS011;42227;6.376;-10.782;2023-02-15T17:47:54;58.08;;;25.08;;
56321;SDS011;42227;6.376;-10.782;2023-02-15T17:50:23;49.15;;;26.58;;
56321;SDS011;42227;6.376;-10.782;2023-02-15T17:52:53;48.65;;;21.92;;
56321;SDS011;42227;6.376;-10.782;2023-02-15T17:55:23;59.25;;;26.25;;
56321;SDS011;42227;6.376;-10.782;2023-02-15T18:00:14;68.35;;;27.88;;
56321;SDS011;42227;6.376;-10.782;2023-02-15T18:02:43;70.10;;;34.90;;
56321;SDS011;42227;6.376;-10.782;2023-02-15T18:05:12;60.45;;;30.65;;
56321;SDS011;42227;6.376;-10.782;2023-02-15T18:07:41;87.78;;;27.60;;
56321;SDS011;42227;6.376;-10.782;2023-02-15T18:10:16;58.55;;;28.83;;
56321;SDS011;42227;6.376;-10.782;2023-02-15T18:12:45;57.22;;;27.42;;
56321;SDS011;42227;6.376;-10.782;2023-02-15T18:15:14;73.90;;;38.42;;
56321;SDS011;42227;6.376;-10.782;2023-02-15T18:17:43;96.30;;;58.00;;
56321;SDS011;42227;6.376;-10.782;2023-02-15T18:20:17;76.87;;;46.33;;